Time;durP1;ratioP1;P1;durP2;ratioP2;P2;SDS_P1;SDS_P2;PMS_P1;PMS_P2;Temp;Humidity;BMP_temperature;BMP_pressure;BME280_temperature;BME280_humidity;BME280_pressure;Samples;Min_cycle;Max_cycle;Signal;HPM_P1;HPM_P2
2021/01/23 00:04:30;;;;;;;10.27;9.23;;;;;;;6.06;74.28;98278.41;10502840;28;20566;-60
2021/01/23 00:09:31;;;;;;;11.10;9.40;;;;;;;6.14;74.03;98286.44;10493082;28;20068;-61
2021/01/23 00:14:33;;;;;;;11.48;10.27;;;;;;;6.14;74.01;98289.06;10501993;28;20109;-60
2021/01/23 00:19:34;;;;;;;11.55;10.35;;;;;;;6.11;73.68;98289.38;10502570;28;20079;-60
2021/01/23 00:24:36;;;;;;;11.93;9.82;;;;;;;6.16;73.57;98289.78;10501755;28;20066;-60
2021/01/23 00:29:37;;;;;;;10.52;9.52;;;;;;;6.24;73.41;98295.16;10506787;28;20073;-60
2021/01/23 00:34:39;;;;;;;9.93;8.95;;;;;;;6.18;73.14;98301.03;10508648;28;20063;-60
2021/01/23 00:39:40;;;;;;;10.38;9.27;;;;;;;6.21;73.54;98316.59;10510263;28;20515;-60
2021/01/23 00:44:41;;;;;;;10.30;9.23;;;;;;;6.25;72.96;98325.09;10506392;28;20101;-61
2021/01/23 00:49:42;;;;;;;10.88;9.50;;;;;;;6.33;72.44;98331.31;10505850;28;20741;-60
2021/01/23 00:54:44;;;;;;;11.48;10.35;;;;;;;6.33;72.65;98330.47;10499804;28;20073;-60
2021/01/23 00:59:45;;;;;;;13.07;11.77;;;;;;;6.29;72.92;98331.72;10508708;28;20186;-60
2021/01/23 01:04:46;;;;;;;12.63;11.32;;;;;;;6.20;73.21;98341.38;10507193;28;20048;-61
2021/01/23 01:09:47;;;;;;;11.77;10.68;;;;;;;6.16;73.22;98346.09;10504477;28;20113;-60
2021/01/23 01:14:49;;;;;;;11.60;10.13;;;;;;;6.10;72.83;98344.03;10497875;28;20052;-60
2021/01/23 01:19:50;;;;;;;11.55;9.73;;;;;;;6.17;73.57;98341.63;10503731;28;20082;-60
2021/01/23 01:24:51;;;;;;;11.68;10.52;;;;;;;6.05;74.20;98348.06;10501236;28;20455;-60
2021/01/23 01:29:52;;;;;;;11.48;10.30;;;;;;;5.98;74.36;98359.19;10513273;28;20051;-61
2021/01/23 01:34:54;;;;;;;13.60;12.23;;;;;;;5.97;74.84;98370.72;10510939;28;20040;-61
2021/01/23 01:39:55;;;;;;;11.85;10.68;;;;;;;5.87;74.83;98364.59;10523092;28;20478;-60
2021/01/23 01:44:56;;;;;;;11.68;10.48;;;;;;;5.84;75.17;98362.25;10523399;28;20109;-63
2021/01/23 01:49:57;;;;;;;12.85;11.55;;;;;;;5.92;74.95;98359.72;10529222;28;20048;-60
2021/01/23 01:54:59;;;;;;;14.50;13.00;;;;;;;6.04;74.88;98371.00;10533983;28;20131;-61
2021/01/23 02:00:01;;;;;;;12.98;11.52;;;;;;;5.99;74.63;98373.22;10532227;28;20052;-61
2021/01/23 02:05:31;;;;;;;13.40;11.30;;;;;;;5.98;74.90;98377.66;10510135;28;20044;-60
2021/01/23 02:10:56;;;;;;;13.82;12.43;;;;;;;5.98;74.87;98377.66;10487800;28;20056;-60
2021/01/23 02:16:00;;;;;;;;;;;;;;;5.97;74.65;98386.56;10500077;28;20048;-61
2021/01/23 02:21:40;;;;;;;13.70;12.30;;;;;;;6.05;74.58;98390.31;10499252;28;19924;-60
2021/01/23 02:27:09;;;;;;;13.63;12.23;;;;;;;6.07;74.38;98393.66;10449585;28;20048;-61
2021/01/23 02:32:11;;;;;;;13.75;12.13;;;;;;;6.05;74.17;98401.75;10522052;28;20732;-61
2021/01/23 02:37:14;;;;;;;14.65;12.98;;;;;;;5.95;74.28;98396.41;10500498;28;20365;-61
2021/01/23 02:42:15;;;;;;;13.48;12.07;;;;;;;5.95;74.60;98406.16;10494560;28;20129;-60
2021/01/23 02:47:16;;;;;;;14.68;12.23;;;;;;;5.94;74.67;98405.28;10501567;28;20055;-60
2021/01/23 02:52:28;;;;;;;13.40;12.00;;;;;;;6.00;73.80;98403.94;10500302;28;20100;-61
2021/01/23 02:57:29;;;;;;;14.32;12.82;;;;;;;6.00;73.82;98420.66;10490433;28;20045;-60
2021/01/23 03:02:35;;;;;;;12.25;10.95;;;;;;;5.99;74.09;98426.03;10500038;28;20082;-60
2021/01/23 03:07:36;;;;;;;12.30;11.00;;;;;;;6.03;73.86;98434.53;10502292;28;20048;-60
2021/01/23 03:12:38;;;;;;;11.48;10.35;;;;;;;6.03;73.34;98439.81;10498815;28;20130;-60
2021/01/23 03:17:39;;;;;;;11.50;10.05;;;;;;;6.09;73.29;98439.25;10487165;28;20049;-60
2021/01/23 03:22:40;;;;;;;10.10;9.02;;;;;;;6.09;72.51;98444.53;10496604;28;20047;-60
2021/01/23 03:27:41;;;;;;;8.60;7.43;;;;;;;6.13;72.82;98451.22;10493565;28;20105;-60
2021/01/23 03:32:44;;;;;;;8.90;6.97;;;;;;;6.14;71.32;98451.09;10498790;28;20831;-60
2021/01/23 03:37:46;;;;;;;8.10;7.00;;;;;;;6.17;70.79;98464.00;10498126;28;20051;-60
2021/01/23 03:42:47;;;;;;;8.40;7.22;;;;;;;6.16;71.24;98462.34;10501007;28;20045;-61
2021/01/23 03:47:48;;;;;;;12.10;10.30;;;;;;;6.14;72.71;98463.44;10497773;28;20494;-61
2021/01/23 03:52:50;;;;;;;12.60;11.25;;;;;;;6.11;73.22;98469.84;10500078;28;20045;-61
2021/01/23 03:57:51;;;;;;;8.27;7.35;;;;;;;5.96;71.25;98466.75;10511785;28;20438;-60
2021/01/23 04:02:52;;;;;;;7.47;6.43;;;;;;;6.01;71.06;98469.84;10529572;28;20101;-60
2021/01/23 04:07:54;;;;;;;8.90;6.60;;;;;;;6.12;70.20;98466.22;10531799;28;20044;-60
2021/01/23 04:12:55;;;;;;;10.02;6.70;;;;;;;6.12;70.02;98471.50;10532883;28;20048;-60
2021/01/23 04:17:57;;;;;;;8.13;6.53;;;;;;;5.99;70.62;98461.22;10531059;28;20037;-60
2021/01/23 04:22:58;;;;;;;7.15;5.68;;;;;;;5.95;71.24;98457.16;10515410;28;20048;-60
2021/01/23 04:27:59;;;;;;;7.88;7.15;;;;;;;5.82;71.63;98456.59;10510368;28;20048;-60
2021/01/23 04:33:01;;;;;;;6.57;5.97;;;;;;;5.78;72.65;98460.47;10494450;28;20109;-60
2021/01/23 04:38:03;;;;;;;7.32;6.35;;;;;;;5.68;72.35;98444.63;10521226;22;20431;-68
2021/01/23 04:43:05;;;;;;;8.13;6.78;;;;;;;5.55;72.80;98436.13;10525404;28;20565;-67
2021/01/23 04:48:07;;;;;;;6.68;6.00;;;;;;;5.52;73.32;98436.41;10528044;28;20060;-67
2021/01/23 04:53:08;;;;;;;7.88;6.78;;;;;;;5.48;73.75;98430.56;10492487;28;20056;-67
2021/01/23 04:58:10;;;;;;;7.50;6.72;;;;;;;5.39;74.49;98448.03;10515136;28;20188;-67
2021/01/23 05:03:11;;;;;;;8.38;7.00;;;;;;;5.22;74.82;98428.38;10481856;28;20045;-69
2021/01/23 05:08:13;;;;;;;8.65;7.35;;;;;;;5.25;75.17;98446.59;10497538;28;20247;-68
2021/01/23 05:13:17;;;;;;;7.97;7.25;;;;;;;5.14;75.30;98438.78;10508078;28;20132;-67
2021/01/23 05:18:18;;;;;;;7.78;6.70;;;;;;;5.23;75.28;98453.81;10506755;28;20114;-67
2021/01/23 05:23:27;;;;;;;8.55;6.45;;;;;;;5.23;75.18;98455.63;10510096;28;20613;-67
2021/01/23 05:28:29;;;;;;;7.28;6.13;;;;;;;5.00;75.10;98455.81;10494194;28;20064;-67
2021/01/23 05:33:33;;;;;;;7.05;5.63;;;;;;;4.94;75.98;98475.63;10507344;28;20040;-67
2021/01/23 05:38:39;;;;;;;6.25;5.22;;;;;;;4.83;75.86;98472.22;10509626;28;20044;-67
2021/01/23 05:43:43;;;;;;;6.80;5.60;;;;;;;4.91;75.93;98467.97;10515462;28;20040;-67
2021/01/23 05:48:48;;;;;;;6.93;5.57;;;;;;;4.81;75.83;98468.91;10510866;28;20574;-66
2021/01/23 05:53:50;;;;;;;6.25;5.65;;;;;;;4.67;76.61;98452.47;10506771;28;20555;-67
2021/01/23 05:58:51;;;;;;;6.55;5.68;;;;;;;4.60;76.59;98462.66;10508898;28;20044;-66
2021/01/23 06:03:57;;;;;;;6.47;5.28;;;;;;;4.50;77.02;98455.66;10507766;28;20442;-66
2021/01/23 06:08:58;;;;;;;6.38;5.30;;;;;;;4.58;76.94;98461.97;10489988;28;20043;-67
2021/01/23 06:13:59;;;;;;;5.97;5.38;;;;;;;4.59;76.79;98450.47;10503792;28;20040;-67
2021/01/23 06:19:06;;;;;;;9.60;6.13;;;;;;;4.72;76.55;98452.88;10492412;28;20051;-67
2021/01/23 06:24:09;;;;;;;8.45;6.63;;;;;;;4.67;76.27;98451.59;10498064;28;20393;-66
2021/01/23 06:29:10;;;;;;;7.50;6.57;;;;;;;4.53;76.79;98450.97;10492970;28;20123;-66
2021/01/23 06:34:26;;;;;;;7.57;6.55;;;;;;;4.42;77.07;98438.69;10493809;28;20047;-66
2021/01/23 06:39:27;;;;;;;8.85;7.15;;;;;;;4.48;77.31;98463.69;10504496;28;20152;-67
2021/01/23 06:44:32;;;;;;;7.82;7.07;;;;;;;4.48;77.26;98471.59;10485040;28;20052;-66
2021/01/23 06:49:40;;;;;;;8.32;7.53;;;;;;;4.39;77.71;98481.09;10501377;28;20054;-66
2021/01/23 06:54:45;;;;;;;8.07;6.57;;;;;;;4.24;78.20;98472.69;10496904;28;20052;-66
2021/01/23 06:59:48;;;;;;;10.27;7.75;;;;;;;4.25;78.31;98474.38;10499345;28;20129;-66
2021/01/23 07:04:50;;;;;;;10.80;7.38;;;;;;;4.17;78.60;98476.78;10468217;28;20458;-66
2021/01/23 07:09:55;;;;;;;9.77;7.78;;;;;;;4.16;78.61;98471.63;10468764;28;20555;-66
2021/01/23 07:14:57;;;;;;;8.48;7.40;;;;;;;4.18;78.59;98486.34;10488861;28;20049;-67
2021/01/23 07:20:02;;;;;;;9.90;8.68;;;;;;;4.05;79.49;98488.31;10481691;28;20090;-65
2021/01/23 07:25:06;;;;;;;11.40;9.27;;;;;;;4.01;79.37;98495.66;10489874;28;20052;-65
2021/01/23 07:30:17;;;;;;;10.20;8.57;;;;;;;3.90;79.96;98498.31;10487340;28;20116;-66
2021/01/23 07:35:19;;;;;;;11.13;8.82;;;;;;;3.79;80.08;98488.66;10484794;28;20107;-66
2021/01/23 07:40:23;;;;;;;11.02;9.02;;;;;;;3.92;79.78;98501.66;10471308;28;20148;-65
2021/01/23 07:45:25;;;;;;;11.17;8.67;;;;;;;3.81;79.53;98480.63;10491169;28;20048;-68
2021/01/23 07:50:40;;;;;;;11.70;9.20;;;;;;;3.92;79.58;98503.44;10493020;28;20575;-68
2021/01/23 07:55:42;;;;;;;;;;;;;;;3.89;79.89;98497.47;10484910;28;20135;-68
2021/01/23 08:00:44;;;;;;;11.55;9.15;;;;;;;3.88;80.13;98492.34;10484135;28;20365;-68
2021/01/23 08:05:49;;;;;;;11.45;9.60;;;;;;;3.95;79.72;98497.94;10484528;28;20607;-68
2021/01/23 08:10:50;;;;;;;11.77;9.18;;;;;;;4.05;80.10;98498.84;10487352;28;20468;-68
2021/01/23 08:15:52;;;;;;;11.25;10.00;;;;;;;3.93;80.07;98479.63;10487761;28;20564;-66
2021/01/23 08:20:54;;;;;;;12.07;9.57;;;;;;;3.84;80.60;98486.50;10467174;28;20121;-66
2021/01/23 08:25:55;;;;;;;13.48;9.52;;;;;;;4.05;80.29;98489.19;10487993;28;20428;-68
2021/01/23 08:31:22;;;;;;;10.93;9.82;;;;;;;4.12;79.95;98494.75;10488337;28;20101;-66
2021/01/23 08:36:26;;;;;;;11.32;9.93;;;;;;;4.20;80.06;98480.97;10470928;28;20139;-67
2021/01/23 08:41:27;;;;;;;13.32;11.02;;;;;;;4.23;79.84;98485.97;10471546;28;20529;-65
2021/01/23 08:46:29;;;;;;;13.23;11.65;;;;;;;4.27;80.08;98476.03;10491229;28;20044;-66
2021/01/23 08:51:33;;;;;;;12.30;10.43;;;;;;;4.37;80.33;98490.13;10474702;28;20536;-66
2021/01/23 08:56:34;;;;;;;14.23;12.73;;;;;;;4.52;79.78;98475.66;10501229;28;20101;-68
2021/01/23 09:01:35;;;;;;;12.80;10.85;;;;;;;4.75;78.75;98455.25;10494712;28;20183;-66
2021/01/23 09:06:37;;;;;;;15.85;11.85;;;;;;;4.80;77.94;98446.13;10495754;28;20040;-68
2021/01/23 09:11:38;;;;;;;12.23;9.93;;;;;;;4.93;77.64;98452.03;10499421;28;20047;-67
2021/01/23 09:16:40;;;;;;;12.43;10.32;;;;;;;4.82;77.35;98434.50;10493416;28;20068;-67
2021/01/23 09:21:41;;;;;;;12.57;9.50;;;;;;;4.84;77.25;98444.91;10478286;28;20032;-67
2021/01/23 09:26:42;;;;;;;10.80;9.57;;;;;;;5.02;77.55;98450.41;10496858;28;20087;-67
2021/01/23 09:31:44;;;;;;;12.18;9.18;;;;;;;5.07;76.70;98456.09;10493612;28;20387;-67
2021/01/23 09:36:45;;;;;;;9.70;8.70;;;;;;;4.77;76.37;98411.16;10483198;28;20110;-66
2021/01/23 09:41:47;;;;;;;11.15;9.95;;;;;;;5.09;76.29;98454.19;10506766;28;20060;-66
2021/01/23 09:46:49;;;;;;;21.08;19.08;;;;;;;5.06;76.75;98467.63;10499953;28;20694;-66
2021/01/23 09:51:50;;;;;;;13.15;11.75;;;;;;;5.17;76.54;98445.59;10508714;28;20036;-67
2021/01/23 09:56:52;;;;;;;81.93;73.07;;;;;;;5.10;75.81;98450.56;10491163;28;20048;-64
2021/01/23 10:01:53;;;;;;;29.45;25.13;;;;;;;5.14;76.47;98444.88;10496493;28;20051;-62
2021/01/23 10:06:56;;;;;;;53.50;47.83;;;;;;;5.18;76.28;98445.47;10504951;28;20078;-65
2021/01/23 10:11:57;;;;;;;12.77;11.57;;;;;;;5.24;76.44;98439.66;10484411;28;20105;-65
2021/01/23 10:16:59;;;;;;;11.20;10.05;;;;;;;5.13;76.37;98427.41;10492542;28;20048;-65
2021/01/23 10:22:01;;;;;;;11.10;9.73;;;;;;;5.26;76.19;98434.25;10481877;28;20174;-66
2021/01/23 10:27:03;;;;;;;12.55;10.43;;;;;;;5.00;76.55;98431.22;10469160;28;20052;-67
2021/01/23 10:32:05;;;;;;;14.02;11.02;;;;;;;5.03;77.26;98426.53;10490802;28;20044;-64
2021/01/23 10:37:06;;;;;;;11.02;9.93;;;;;;;5.09;76.96;98415.47;10483380;28;20654;-65
2021/01/23 10:42:08;;;;;;;10.63;9.52;;;;;;;4.93;77.68;98418.56;10480029;28;20056;-65
2021/01/23 10:47:12;;;;;;;11.80;10.60;;;;;;;5.00;78.12;98404.84;10477644;28;20094;-65
2021/01/23 10:52:13;;;;;;;13.17;11.80;;;;;;;5.01;77.88;98391.53;10498718;28;20465;-66
2021/01/23 10:57:15;;;;;;;13.43;10.45;;;;;;;5.02;78.27;98392.38;10492209;28;20051;-67
2021/01/23 11:02:18;;;;;;;25.27;22.80;;;;;;;4.84;78.82;98350.81;10523754;28;20036;-67
2021/01/23 11:07:19;;;;;;;13.00;11.27;;;;;;;5.19;78.66;98383.81;10494225;28;20444;-67
2021/01/23 11:12:20;;;;;;;13.73;12.27;;;;;;;5.18;78.25;98368.13;10463992;28;20037;-67
2021/01/23 11:17:22;;;;;;;24.10;21.83;;;;;;;5.16;78.56;98365.63;10488463;28;20055;-68
2021/01/23 11:22:27;;;;;;;13.57;12.15;;;;;;;5.23;78.48;98364.13;10480745;28;20044;-66
2021/01/23 11:27:29;;;;;;;15.93;14.23;;;;;;;5.20;78.55;98338.00;10485185;28;20189;-66
2021/01/23 11:32:32;;;;;;;14.23;12.77;;;;;;;5.45;78.05;98351.63;10470073;28;20051;-65
2021/01/23 11:37:34;;;;;;;21.75;19.63;;;;;;;5.53;77.68;98348.34;10494438;22;20172;-73
2021/01/23 11:42:35;;;;;;;80.22;72.10;;;;;;;5.52;77.20;98336.09;10497473;27;20501;-72
2021/01/23 11:47:36;;;;;;;12.27;11.13;;;;;;;5.44;77.25;98320.97;10489065;28;20041;-70
2021/01/23 11:52:38;;;;;;;14.35;12.45;;;;;;;5.52;77.44;98321.09;10467177;28;20120;-71
2021/01/23 11:57:39;;;;;;;12.20;10.18;;;;;;;5.61;77.01;98314.97;10453994;28;20079;-71
2021/01/23 12:02:41;;;;;;;10.57;9.48;;;;;;;5.54;77.08;98308.63;10451793;28;20057;-73
2021/01/23 12:07:42;;;;;;;10.85;9.75;;;;;;;5.51;77.14;98289.56;10455445;28;20048;-72
2021/01/23 12:12:44;;;;;;;10.35;9.35;;;;;;;5.56;76.35;98284.72;10452424;28;20068;-73
2021/01/23 12:17:45;;;;;;;11.85;8.95;;;;;;;5.52;76.96;98263.03;10479020;28;20140;-70
2021/01/23 12:22:47;;;;;;;10.73;9.45;;;;;;;5.57;76.25;98254.69;10497611;28;20033;-73
2021/01/23 12:27:48;;;;;;;10.18;9.20;;;;;;;5.67;76.31;98250.25;10505821;28;20052;-71
2021/01/23 12:32:49;;;;;;;11.05;7.85;;;;;;;5.72;75.80;98248.03;10505976;28;20041;-71
2021/01/23 12:37:57;;;;;;;9.82;8.63;;;;;;;5.65;76.55;98239.81;10463547;28;20059;-70
2021/01/23 12:42:58;;;;;;;10.80;8.10;;;;;;;5.73;75.88;98233.00;10470962;28;20044;-70
2021/01/23 12:47:59;;;;;;;8.75;7.90;;;;;;;5.73;75.97;98236.47;10467936;28;20060;-72
2021/01/23 12:53:00;;;;;;;9.77;8.65;;;;;;;5.86;75.70;98230.91;10483074;28;20069;-73
2021/01/23 12:58:04;;;;;;;8.65;7.78;;;;;;;6.06;74.81;98217.66;10463048;28;20052;-71
2021/01/23 13:03:06;;;;;;;8.05;6.53;;;;;;;6.07;75.24;98208.78;10491018;28;20109;-72
2021/01/23 13:08:07;;;;;;;8.65;7.85;;;;;;;6.08;75.43;98199.84;10490432;28;20049;-72
2021/01/23 13:13:08;;;;;;;9.43;8.43;;;;;;;6.21;75.23;98200.34;10459481;28;20052;-72
2021/01/23 13:18:10;;;;;;;10.80;9.70;;;;;;;6.16;74.97;98194.69;10468525;28;20565;-72
2021/01/23 13:23:11;;;;;;;7.80;7.00;;;;;;;6.46;74.29;98182.97;10469387;28;20036;-72
2021/01/23 13:28:12;;;;;;;15.65;14.13;;;;;;;6.39;74.25;98183.72;10464389;28;20060;-73
2021/01/23 13:33:14;;;;;;;20.42;18.60;;;;;;;6.45;74.53;98176.03;10466558;28;20056;-72
2021/01/23 13:38:16;;;;;;;8.93;8.05;;;;;;;6.34;73.51;98168.31;10467842;28;20565;-71
2021/01/23 13:43:17;;;;;;;6.38;5.72;;;;;;;6.26;73.22;98157.63;10459376;28;20573;-71
2021/01/23 13:48:19;;;;;;;10.00;9.02;;;;;;;6.19;74.02;98173.25;10448701;28;20127;-71
2021/01/23 13:53:20;;;;;;;7.50;5.82;;;;;;;6.22;73.01;98156.28;10456278;28;20186;-70
2021/01/23 13:58:23;;;;;;;7.22;5.68;;;;;;;6.30;73.39;98154.53;10456319;28;20057;-74
2021/01/23 14:03:25;;;;;;;6.88;5.55;;;;;;;6.30;72.69;98151.91;10471012;28;20053;-70
2021/01/23 14:08:26;;;;;;;7.78;4.97;;;;;;;6.25;72.17;98137.50;10455634;28;20153;-70
2021/01/23 14:13:27;;;;;;;7.93;7.15;;;;;;;6.29;72.60;98147.63;10458187;28;20131;-71
2021/01/23 14:18:28;;;;;;;21.10;19.15;;;;;;;6.18;72.55;98148.66;10458106;28;20052;-70
2021/01/23 14:23:30;;;;;;;12.40;11.27;;;;;;;6.27;72.48;98140.81;10456987;28;20094;-71
2021/01/23 14:28:31;;;;;;;30.73;28.00;;;;;;;6.33;71.25;98140.22;10456550;28;20041;-69
2021/01/23 14:33:32;;;;;;;10.77;6.88;;;;;;;6.44;70.96;98136.53;10457440;28;20040;-72
2021/01/23 14:38:34;;;;;;;14.85;13.35;;;;;;;6.50;71.33;98136.78;10451059;28;20052;-70
2021/01/23 14:43:50;;;;;;;15.43;13.65;;;;;;;6.54;71.11;98132.00;10461981;28;20052;-71
2021/01/23 14:48:52;;;;;;;63.67;55.80;;;;;;;6.53;70.97;98135.63;10458545;28;20098;-72
2021/01/23 14:53:53;;;;;;;10.02;9.18;;;;;;;6.48;70.57;98137.91;10460235;28;21960;-75
2021/01/23 14:58:54;;;;;;;13.18;11.88;;;;;;;6.49;70.47;98134.28;10461951;28;20049;-72
2021/01/23 15:03:56;;;;;;;4.93;4.05;;;;;;;6.47;70.75;98130.94;10480572;28;20102;-76
2021/01/23 15:08:58;;;;;;;5.00;4.60;;;;;;;6.50;70.13;98120.06;10492047;28;20087;-73
2021/01/23 15:13:59;;;;;;;6.38;5.78;;;;;;;6.57;70.15;98125.59;10465979;28;20040;-71
2021/01/23 15:19:01;;;;;;;6.07;5.47;;;;;;;6.51;69.61;98119.09;10468573;28;20047;-73
2021/01/23 15:24:03;;;;;;;8.15;6.43;;;;;;;6.48;69.76;98125.50;10459084;28;20036;-72
2021/01/23 15:29:04;;;;;;;4.45;3.50;;;;;;;6.36;69.85;98117.00;10460516;28;20060;-71
2021/01/23 15:34:05;;;;;;;5.03;3.30;;;;;;;6.29;70.13;98101.84;10472120;28;20048;-71
2021/01/23 15:39:07;;;;;;;5.00;3.70;;;;;;;6.33;69.76;98101.41;10477694;28;20045;-75
2021/01/23 15:44:09;;;;;;;6.68;3.15;;;;;;;6.32;69.34;98099.75;10484564;28;20052;-71
2021/01/23 15:49:10;;;;;;;3.45;3.13;;;;;;;6.27;70.12;98099.34;10456746;28;20167;-70
2021/01/23 15:54:12;;;;;;;5.05;3.17;;;;;;;6.18;70.03;98100.25;10463627;28;20097;-70
2021/01/23 15:59:13;;;;;;;10.52;9.45;;;;;;;6.15;70.50;98092.63;10461397;28;20124;-71
2021/01/23 16:04:15;;;;;;;9.48;4.75;;;;;;;6.09;71.07;98090.59;10460281;28;20071;-70
2021/01/23 16:09:16;;;;;;;4.40;3.80;;;;;;;6.00;71.89;98082.56;10462684;28;20113;-71
2021/01/23 16:14:18;;;;;;;6.57;4.15;;;;;;;5.93;72.20;98080.63;10469054;28;20583;-70
2021/01/23 16:19:19;;;;;;;5.55;4.95;;;;;;;5.97;72.03;98074.91;10468403;28;20048;-72
2021/01/23 16:24:20;;;;;;;5.63;4.90;;;;;;;6.00;71.67;98064.09;10467750;28;20064;-71
2021/01/23 16:29:22;;;;;;;6.05;4.80;;;;;;;6.07;71.41;98071.41;10460698;28;20507;-72
2021/01/23 16:34:23;;;;;;;8.73;4.78;;;;;;;6.01;71.17;98067.56;10464384;28;20139;-71
2021/01/23 16:39:25;;;;;;;5.15;4.25;;;;;;;5.99;70.86;98070.34;10458499;28;20075;-70
2021/01/23 16:44:26;;;;;;;5.50;4.32;;;;;;;5.98;71.14;98068.66;10462923;28;20072;-71
2021/01/23 16:49:27;;;;;;;4.90;3.75;;;;;;;5.93;71.29;98057.69;10452572;28;20113;-74
2021/01/23 16:54:28;;;;;;;5.25;3.88;;;;;;;5.90;71.35;98057.16;10463696;28;20083;-70
2021/01/23 16:59:30;;;;;;;5.72;4.00;;;;;;;5.84;71.47;98051.50;10464917;28;20059;-73
2021/01/23 17:04:31;;;;;;;4.60;3.90;;;;;;;5.80;71.55;98042.19;10469249;28;20049;-68
2021/01/23 17:09:33;;;;;;;4.32;3.97;;;;;;;5.74;71.94;98039.31;10470083;28;20052;-70
2021/01/23 17:14:34;;;;;;;4.20;3.80;;;;;;;5.72;71.77;98030.69;10474844;28;20048;-71
2021/01/23 17:19:36;;;;;;;5.30;4.30;;;;;;;5.78;72.21;98030.97;10455571;28;20127;-70
2021/01/23 17:24:37;;;;;;;5.07;4.53;;;;;;;5.86;71.89;98022.28;10452690;28;20045;-70
2021/01/23 17:29:39;;;;;;;5.82;5.22;;;;;;;5.93;71.16;98023.38;10456948;28;20045;-70
2021/01/23 17:34:40;;;;;;;10.65;9.75;;;;;;;5.82;71.08;98020.91;10469820;28;20056;-71
2021/01/23 17:39:42;;;;;;;7.00;6.30;;;;;;;5.68;71.73;98005.59;10471260;28;20076;-71
2021/01/23 17:44:43;;;;;;;5.32;4.43;;;;;;;5.65;71.80;98001.44;10482211;28;20098;-70
2021/01/23 17:49:45;;;;;;;6.00;4.55;;;;;;;5.57;72.28;97996.03;10482591;28;21066;-70
2021/01/23 17:54:46;;;;;;;6.05;4.97;;;;;;;5.63;71.88;98006.00;10466570;28;20051;-71
2021/01/23 17:59:48;;;;;;;5.47;4.95;;;;;;;5.61;72.14;98000.06;10458444;28;20056;-71
2021/01/23 18:04:49;;;;;;;7.22;5.97;;;;;;;5.60;72.27;98006.31;10455901;28;20604;-70
2021/01/23 18:09:51;;;;;;;5.65;5.05;;;;;;;5.65;71.93;97999.63;10466739;28;20052;-75
2021/01/23 18:14:52;;;;;;;6.90;4.80;;;;;;;5.55;72.25;97996.19;10459254;28;20052;-71
2021/01/23 18:19:53;;;;;;;5.95;4.60;;;;;;;5.57;72.13;97990.78;10464955;28;20056;-73
2021/01/23 18:24:55;;;;;;;5.40;4.90;;;;;;;5.54;72.39;97997.19;10470060;28;20456;-72
2021/01/23 18:29:56;;;;;;;7.32;5.68;;;;;;;5.60;73.81;97993.97;10455797;28;20044;-73
2021/01/23 18:34:57;;;;;;;6.47;5.57;;;;;;;5.73;73.88;97984.84;10454729;28;20514;-71
2021/01/23 18:39:59;;;;;;;6.30;5.70;;;;;;;5.76;73.43;97982.75;10464673;28;20044;-71
2021/01/23 18:45:00;;;;;;;10.07;6.43;;;;;;;5.69;73.15;97972.94;10477552;27;20044;-73
2021/01/23 18:50:05;;;;;;;7.20;6.50;;;;;;;5.54;73.50;97962.88;10476574;28;20036;-72
2021/01/23 18:55:07;;;;;;;9.32;8.52;;;;;;;5.42;74.23;97948.22;10463177;28;20050;-71
2021/01/23 19:00:13;;;;;;;8.70;7.55;;;;;;;5.34;74.38;97951.59;10461415;28;20075;-71
2021/01/23 19:05:16;;;;;;;20.88;16.50;;;;;;;5.29;74.21;97946.75;10472457;28;20124;-72
2021/01/23 19:10:18;;;;;;;8.65;7.85;;;;;;;5.25;74.22;97945.38;10465818;28;20059;-72
2021/01/23 19:15:19;;;;;;;9.50;8.70;;;;;;;5.29;74.28;97930.94;10479031;28;20049;-71
2021/01/23 19:20:21;;;;;;;8.68;7.75;;;;;;;5.35;74.01;97934.78;10451990;28;20056;-71
2021/01/23 19:25:22;;;;;;;9.70;8.70;;;;;;;5.38;73.60;97929.22;10450945;28;20057;-71
2021/01/23 19:30:24;;;;;;;9.60;8.60;;;;;;;5.45;73.62;97929.44;10454057;28;20150;-72
2021/01/23 19:35:25;;;;;;;9.80;8.88;;;;;;;5.40;73.87;97927.25;10455558;28;20048;-72
2021/01/23 19:40:26;;;;;;;10.80;8.80;;;;;;;5.39;73.99;97922.13;10453249;28;20548;-72
2021/01/23 19:45:28;;;;;;;9.40;8.10;;;;;;;5.35;73.73;97924.25;10449817;28;20114;-70
2021/01/23 19:50:30;;;;;;;9.55;8.50;;;;;;;5.31;73.94;97928.13;10463309;28;20100;-69
2021/01/23 19:55:31;;;;;;;9.60;8.00;;;;;;;5.28;73.84;97924.00;10474443;28;20055;-72
2021/01/23 20:00:32;;;;;;;8.55;7.68;;;;;;;5.34;73.53;97919.09;10477291;28;20059;-72
2021/01/23 20:05:34;;;;;;;9.15;8.25;;;;;;;5.35;73.76;97907.59;10476258;28;20082;-71
2021/01/23 20:10:36;;;;;;;9.43;8.32;;;;;;;5.37;73.20;97897.69;10457032;28;20055;-72
2021/01/23 20:15:38;;;;;;;9.88;8.98;;;;;;;5.40;73.26;97905.31;10455678;28;20454;-74
2021/01/23 20:20:40;;;;;;;8.98;7.82;;;;;;;5.27;73.38;97895.97;10458560;28;20048;-71
2021/01/23 20:25:41;;;;;;;9.43;8.63;;;;;;;5.32;73.66;97896.34;10453373;28;20049;-72
2021/01/23 20:30:42;;;;;;;8.88;8.07;;;;;;;5.30;73.08;97885.09;10451890;28;20068;-72
2021/01/23 20:35:44;;;;;;;10.35;9.38;;;;;;;5.23;73.42;97873.47;10456171;28;20064;-71
2021/01/23 20:40:46;;;;;;;10.63;9.52;;;;;;;5.31;73.06;97881.50;10460646;28;20057;-73
2021/01/23 20:45:47;;;;;;;10.35;8.82;;;;;;;5.30;72.78;97869.28;10462969;28;20048;-71
2021/01/23 20:50:48;;;;;;;9.63;8.63;;;;;;;5.26;72.54;97873.19;10462683;28;20396;-73
2021/01/23 20:55:50;;;;;;;11.70;10.50;;;;;;;5.23;72.52;97873.47;10461125;28;20102;-70
2021/01/23 21:00:52;;;;;;;10.52;9.52;;;;;;;5.21;72.56;97869.31;10462173;28;20041;-72
2021/01/23 21:05:53;;;;;;;11.55;10.35;;;;;;;5.14;72.85;97856.72;10462732;28;20052;-71
2021/01/23 21:10:56;;;;;;;11.63;10.43;;;;;;;5.16;74.57;97848.66;10466721;28;20091;-72
2021/01/23 21:15:57;;;;;;;12.52;11.00;;;;;;;5.14;72.62;97848.00;10482072;28;20044;-71
2021/01/23 21:20:59;;;;;;;12.18;10.98;;;;;;;5.18;73.11;97844.09;10479516;28;20059;-72
2021/01/23 21:26:00;;;;;;;12.90;11.50;;;;;;;5.28;73.02;97836.09;10461182;28;20197;-71
2021/01/23 21:31:01;;;;;;;12.80;11.38;;;;;;;5.14;72.98;97840.91;10463225;28;20072;-70
2021/01/23 21:36:02;;;;;;;11.82;10.63;;;;;;;5.13;73.13;97835.78;10467080;28;21129;-71
2021/01/23 21:41:04;;;;;;;12.70;11.40;;;;;;;5.04;73.55;97824.31;10460078;28;20076;-70
2021/01/23 21:46:05;;;;;;;13.13;11.75;;;;;;;5.02;73.68;97813.09;10462576;28;20123;-70
2021/01/23 21:51:06;;;;;;;12.48;11.18;;;;;;;5.09;73.98;97813.34;10473163;28;20075;-70
2021/01/23 21:56:08;;;;;;;14.95;12.27;;;;;;;5.00;73.91;97814.22;10486207;28;20047;-72
2021/01/23 22:01:09;;;;;;;14.27;12.77;;;;;;;4.96;74.71;97806.59;10476625;28;20078;-74
2021/01/23 22:06:11;;;;;;;14.27;12.88;;;;;;;4.95;74.75;97797.06;10501282;28;20044;-71
2021/01/23 22:11:15;;;;;;;14.27;12.73;;;;;;;4.93;74.11;97804.25;10468800;28;20139;-70
2021/01/23 22:16:16;;;;;;;13.80;12.23;;;;;;;4.89;74.47;97802.06;10467409;28;20068;-71
2021/01/23 22:21:17;;;;;;;14.70;11.98;;;;;;;4.77;74.93;97801.44;10472191;28;20044;-71
2021/01/23 22:26:22;;;;;;;13.93;12.25;;;;;;;4.72;75.33;97806.31;10467733;28;20056;-70
2021/01/23 22:31:24;;;;;;;14.38;12.98;;;;;;;4.67;75.86;97803.28;10466252;28;20568;-69
2021/01/23 22:36:25;;;;;;;13.55;12.15;;;;;;;4.66;75.99;97799.00;10466049;28;20116;-71
2021/01/23 22:41:26;;;;;;;14.02;12.63;;;;;;;4.67;75.98;97783.06;10462705;28;20093;-70
2021/01/23 22:46:28;;;;;;;13.25;11.85;;;;;;;4.71;75.88;97789.66;10458893;28;20048;-70
2021/01/23 22:51:29;;;;;;;14.43;12.82;;;;;;;4.59;76.71;97789.06;10460937;28;20056;-71
2021/01/23 22:56:30;;;;;;;15.70;14.10;;;;;;;4.56;77.32;97773.53;10461022;28;20274;-70
2021/01/23 23:01:32;;;;;;;14.85;13.35;;;;;;;4.49;77.42;97780.34;10467578;28;20129;-70
2021/01/23 23:06:33;;;;;;;14.27;12.93;;;;;;;4.39;77.70;97772.47;10458934;28;20555;-70
2021/01/23 23:11:34;;;;;;;13.93;12.52;;;;;;;4.42;77.76;97776.66;10457653;28;20052;-69
2021/01/23 23:16:36;;;;;;;13.68;12.27;;;;;;;4.40;77.95;97770.69;10484078;28;20052;-72
2021/01/23 23:21:37;;;;;;;15.73;14.13;;;;;;;4.35;77.28;97765.03;10489866;28;20074;-71
2021/01/23 23:26:38;;;;;;;14.10;12.60;;;;;;;4.28;78.00;97750.75;10466079;28;20052;-70
2021/01/23 23:31:40;;;;;;;15.00;13.40;;;;;;;4.31;78.29;97747.84;10454898;28;20113;-70